Time;durP1;ratioP1;P1;durP2;ratioP2;P2;SDS_P1;SDS_P2;PMS_P1;PMS_P2;Temp;Humidity;BMP_temperature;BMP_pressure;BME280_temperature;BME280_humidity;BME280_pressure;Samples;Min_cycle;Max_cycle;Signal;HPM_P1;HPM_P2
2023/07/28 00:01:11;;;;;;;3.00;1.80;;;;;;;;;;4936246;28;92432;-79
2023/07/28 00:03:38;;;;;;;3.15;1.67;;;;;;;;;;4948014;28;92791;-79
2023/07/28 00:06:04;;;;;;;3.17;1.50;;;;;;;;;;4938196;28;96144;-79
2023/07/28 00:08:31;;;;;;;2.92;1.60;;;;;;;;;;4944042;28;92989;-79
2023/07/28 00:10:57;;;;;;;2.85;1.50;;;;;;;;;;4933280;28;94178;-79
2023/07/28 00:13:24;;;;;;;3.00;1.70;;;;;;;;;;4934845;28;93066;-79
2023/07/28 00:15:50;;;;;;;2.60;1.50;;;;;;;;;;4939543;28;92452;-79
2023/07/28 00:18:18;;;;;;;3.15;1.58;;;;;;;;;;4949424;28;92830;-77
2023/07/28 00:20:45;;;;;;;2.70;1.60;;;;;;;;;;4952752;28;93423;-79
2023/07/28 00:23:11;;;;;;;2.88;1.70;;;;;;;;;;4950656;28;92966;-79
2023/07/28 00:25:38;;;;;;;2.92;1.45;;;;;;;;;;4949707;28;93089;-79
2023/07/28 00:28:04;;;;;;;3.15;1.75;;;;;;;;;;4952315;28;92462;-79
2023/07/28 00:30:31;;;;;;;4.20;2.00;;;;;;;;;;4943308;28;94831;-79
2023/07/28 00:32:58;;;;;;;2.95;1.70;;;;;;;;;;4942447;28;92851;-78
2023/07/28 00:35:24;;;;;;;2.97;1.80;;;;;;;;;;4944834;28;92372;-78
2023/07/28 00:37:51;;;;;;;2.90;1.60;;;;;;;;;;4946360;28;95084;-78
2023/07/28 00:40:18;;;;;;;3.50;1.70;;;;;;;;;;4947440;28;93747;-78
2023/07/28 00:42:45;;;;;;;3.03;1.50;;;;;;;;;;4945282;28;92785;-79
2023/07/28 00:45:11;;;;;;;3.20;1.70;;;;;;;;;;4940489;28;92504;-79
2023/07/28 00:47:38;;;;;;;3.85;1.80;;;;;;;;;;4951951;28;91729;-79
2023/07/28 00:50:05;;;;;;;3.38;1.50;;;;;;;;;;4937874;28;94936;-78
2023/07/28 00:52:32;;;;;;;3.80;1.85;;;;;;;;;;4951859;28;92518;-79
2023/07/28 00:54:58;;;;;;;3.30;1.63;;;;;;;;;;4952993;28;94920;-79
2023/07/28 00:57:25;;;;;;;3.53;1.77;;;;;;;;;;4941605;28;94955;-79
2023/07/28 00:59:52;;;;;;;3.60;1.70;;;;;;;;;;4945978;28;95851;-79
2023/07/28 01:02:19;;;;;;;3.78;1.80;;;;;;;;;;4952708;28;92476;-78
2023/07/28 01:04:46;;;;;;;3.42;1.92;;;;;;;;;;4964274;28;92786;-79
2023/07/28 01:07:20;;;;;;;4.70;1.90;;;;;;;;;;4962345;28;92324;-79
2023/07/28 01:09:50;;;;;;;3.78;1.90;;;;;;;;;;4953365;28;93135;-79
2023/07/28 01:12:19;;;;;;;5.45;2.40;;;;;;;;;;4953820;28;92642;-78
2023/07/28 01:14:46;;;;;;;2.88;1.75;;;;;;;;;;4954927;28;93062;-79
2023/07/28 01:17:12;;;;;;;4.78;2.05;;;;;;;;;;4950414;28;92408;-79
2023/07/28 01:19:39;;;;;;;5.13;2.05;;;;;;;;;;4959014;28;97494;-79
2023/07/28 01:22:24;;;;;;;4.40;2.03;;;;;;;;;;4959861;28;92735;-78
2023/07/28 01:24:55;;;;;;;4.85;1.92;;;;;;;;;;4959511;28;95822;-79
2023/07/28 01:27:22;;;;;;;4.22;2.00;;;;;;;;;;4947100;28;92642;-79
2023/07/28 01:29:48;;;;;;;4.57;2.00;;;;;;;;;;4957689;28;92756;-79
2023/07/28 01:32:15;;;;;;;4.57;2.20;;;;;;;;;;4956711;28;94498;-78
2023/07/28 01:34:41;;;;;;;3.80;1.77;;;;;;;;;;4943315;28;93022;-79
2023/07/28 01:37:08;;;;;;;4.28;2.00;;;;;;;;;;4963103;28;95453;-78
2023/07/28 01:39:35;;;;;;;3.70;2.00;;;;;;;;;;4945777;28;94897;-79
2023/07/28 01:42:01;;;;;;;4.15;1.90;;;;;;;;;;4934436;28;92608;-78
2023/07/28 01:44:28;;;;;;;5.18;2.20;;;;;;;;;;4950706;28;94782;-79
2023/07/28 01:46:55;;;;;;;3.80;2.00;;;;;;;;;;4955575;28;94532;-79
2023/07/28 01:49:21;;;;;;;3.97;2.10;;;;;;;;;;4938001;28;92759;-79
2023/07/28 01:51:48;;;;;;;4.40;2.00;;;;;;;;;;4951196;28;93038;-78
2023/07/28 01:54:14;;;;;;;5.50;2.22;;;;;;;;;;4950496;28;92343;-78
2023/07/28 01:56:41;;;;;;;4.57;1.75;;;;;;;;;;4944521;28;93249;-79
2023/07/28 01:59:07;;;;;;;4.30;2.22;;;;;;;;;;4929976;28;94543;-79
2023/07/28 02:01:35;;;;;;;4.28;2.13;;;;;;;;;;4948007;28;91811;-78
2023/07/28 02:04:01;;;;;;;4.97;2.20;;;;;;;;;;4953528;28;95198;-78
2023/07/28 02:06:29;;;;;;;4.60;2.20;;;;;;;;;;4955945;28;95885;-78
2023/07/28 02:08:55;;;;;;;;;;;;;;;;;;4918792;28;94944;-78
2023/07/28 02:11:21;;;;;;;6.03;2.22;;;;;;;;;;4946104;28;102022;-79
2023/07/28 02:13:48;;;;;;;4.53;2.10;;;;;;;;;;4938758;28;92692;-79
2023/07/28 02:16:17;;;;;;;3.97;1.83;;;;;;;;;;4943492;28;92704;-79
2023/07/28 02:18:44;;;;;;;3.55;1.80;;;;;;;;;;4948219;28;93026;-79
2023/07/28 02:21:10;;;;;;;4.97;2.30;;;;;;;;;;4939380;28;92926;-78
2023/07/28 02:23:37;;;;;;;4.40;2.00;;;;;;;;;;4945701;28;92852;-79
2023/07/28 02:26:03;;;;;;;5.22;2.17;;;;;;;;;;4950930;28;92829;-79
2023/07/28 02:28:30;;;;;;;4.97;1.98;;;;;;;;;;4938294;28;92773;-79
2023/07/28 02:30:57;;;;;;;4.30;2.08;;;;;;;;;;4951946;28;92643;-79
2023/07/28 02:33:23;;;;;;;4.97;2.35;;;;;;;;;;4936145;28;94829;-79
2023/07/28 02:35:50;;;;;;;4.30;2.00;;;;;;;;;;4940134;28;98228;-79
2023/07/28 02:38:17;;;;;;;4.85;2.22;;;;;;;;;;4940267;28;93741;-79
2023/07/28 02:40:43;;;;;;;5.18;2.50;;;;;;;;;;4950940;28;92368;-79
2023/07/28 02:43:10;;;;;;;5.38;2.50;;;;;;;;;;4941742;28;94652;-79
2023/07/28 02:45:36;;;;;;;5.57;2.40;;;;;;;;;;4945388;28;93905;-78
2023/07/28 02:48:05;;;;;;;4.18;2.20;;;;;;;;;;4949706;28;93139;-78
2023/07/28 02:50:33;;;;;;;5.82;2.35;;;;;;;;;;4950195;28;91711;-78
2023/07/28 02:53:00;;;;;;;4.95;2.40;;;;;;;;;;4954632;28;93087;-79
2023/07/28 02:55:26;;;;;;;5.88;2.60;;;;;;;;;;4949211;28;95087;-79
2023/07/28 02:57:53;;;;;;;4.88;2.55;;;;;;;;;;4937215;28;98666;-79
2023/07/28 03:00:19;;;;;;;4.53;2.28;;;;;;;;;;4929372;28;92858;-79
2023/07/28 03:02:46;;;;;;;4.40;2.20;;;;;;;;;;4945731;28;95450;-79
2023/07/28 03:05:13;;;;;;;5.53;2.30;;;;;;;;;;4939598;28;93103;-78
2023/07/28 03:07:57;;;;;;;4.95;2.05;;;;;;;;;;4949082;28;92508;-79
2023/07/28 03:10:23;;;;;;;7.00;2.70;;;;;;;;;;4938842;28;92689;-79
2023/07/28 03:12:50;;;;;;;5.82;2.30;;;;;;;;;;4943786;28;94094;-79
2023/07/28 03:15:16;;;;;;;5.20;2.22;;;;;;;;;;4950017;28;91931;-79
2023/07/28 03:17:43;;;;;;;6.70;2.45;;;;;;;;;;4941365;28;96725;-79
2023/07/28 03:20:10;;;;;;;5.63;2.60;;;;;;;;;;4946198;28;92587;-79
2023/07/28 03:22:37;;;;;;;6.00;2.35;;;;;;;;;;4952676;28;95316;-79
2023/07/28 03:25:04;;;;;;;6.15;2.08;;;;;;;;;;4943507;28;93034;-79
2023/07/28 03:27:30;;;;;;;5.93;2.60;;;;;;;;;;4919005;28;92909;-78
2023/07/28 03:29:57;;;;;;;5.45;2.47;;;;;;;;;;4940595;28;95513;-79
2023/07/28 03:32:23;;;;;;;5.63;2.30;;;;;;;;;;4935974;28;95563;-79
2023/07/28 03:34:50;;;;;;;5.35;2.60;;;;;;;;;;4948746;28;92426;-78
2023/07/28 03:37:19;;;;;;;5.57;2.50;;;;;;;;;;4947676;28;95432;-79
2023/07/28 03:39:46;;;;;;;6.15;2.45;;;;;;;;;;4940450;28;92978;-79
2023/07/28 03:42:12;;;;;;;6.32;2.72;;;;;;;;;;4931550;28;92700;-80
2023/07/28 03:44:41;;;;;;;5.88;2.45;;;;;;;;;;4947920;28;95772;-79
2023/07/28 03:47:08;;;;;;;5.70;2.40;;;;;;;;;;4942305;28;95225;-79
2023/07/28 03:49:34;;;;;;;5.93;2.50;;;;;;;;;;4948313;28;98258;-79
2023/07/28 03:52:01;;;;;;;7.72;2.90;;;;;;;;;;4947554;28;96115;-79
2023/07/28 03:54:29;;;;;;;7.28;2.58;;;;;;;;;;4950193;28;93204;-79
2023/07/28 03:56:55;;;;;;;7.22;2.50;;;;;;;;;;4947337;28;93058;-80
2023/07/28 03:59:22;;;;;;;6.45;2.70;;;;;;;;;;4932245;28;92540;-79
2023/07/28 04:01:48;;;;;;;7.18;2.85;;;;;;;;;;4938311;28;95879;-79
2023/07/28 04:04:16;;;;;;;5.75;2.70;;;;;;;;;;4951442;28;95367;-80
2023/07/28 04:06:44;;;;;;;6.85;2.47;;;;;;;;;;4944502;28;92576;-79
2023/07/28 04:09:12;;;;;;;8.38;3.20;;;;;;;;;;4943140;28;95634;-79
2023/07/28 04:11:39;;;;;;;6.85;2.97;;;;;;;;;;4945941;28;94790;-79
2023/07/28 04:14:06;;;;;;;5.40;2.50;;;;;;;;;;4947248;28;92458;-79
2023/07/28 04:16:33;;;;;;;7.47;3.10;;;;;;;;;;4954387;28;95283;-79
2023/07/28 04:19:00;;;;;;;8.07;3.38;;;;;;;;;;4956404;28;93008;-84
2023/07/28 04:21:27;;;;;;;7.75;2.85;;;;;;;;;;4944198;28;95150;-84
2023/07/28 04:23:53;;;;;;;7.80;3.10;;;;;;;;;;4925321;28;92987;-85
2023/07/28 04:26:20;;;;;;;7.85;3.10;;;;;;;;;;4952356;28;93125;-84
2023/07/28 04:28:52;;;;;;;8.05;3.13;;;;;;;;;;4942664;28;93936;-84
2023/07/28 04:31:18;;;;;;;8.55;3.40;;;;;;;;;;4954238;28;92907;-85
2023/07/28 04:33:53;;;;;;;8.15;3.13;;;;;;;;;;4933053;28;92515;-84
2023/07/28 04:36:21;;;;;;;6.82;2.90;;;;;;;;;;4939809;28;94946;-85
2023/07/28 04:38:48;;;;;;;7.53;3.03;;;;;;;;;;4952515;28;95640;-84
2023/07/28 04:41:14;;;;;;;7.07;2.90;;;;;;;;;;4957637;28;92399;-84
2023/07/28 04:43:50;;;;;;;7.97;3.15;;;;;;;;;;4944519;28;95843;-85
2023/07/28 04:46:17;;;;;;;;;;;;;;;;;;4954379;28;92468;-84
2023/07/28 04:48:49;;;;;;;6.53;2.80;;;;;;;;;;4953715;28;94820;-84
2023/07/28 04:51:34;;;;;;;6.32;2.72;;;;;;;;;;4963909;28;92861;-84
2023/07/28 04:54:29;;;;;;;9.00;3.70;;;;;;;;;;4955440;28;91769;-84
2023/07/28 04:56:56;;;;;;;9.85;3.95;;;;;;;;;;4946279;28;94979;-84
2023/07/28 04:59:28;;;;;;;8.60;3.63;;;;;;;;;;4943986;28;94541;-84
2023/07/28 05:01:55;;;;;;;9.05;3.30;;;;;;;;;;4954434;28;94855;-83
2023/07/28 05:04:21;;;;;;;9.15;3.47;;;;;;;;;;4960610;28;97846;-84
2023/07/28 05:06:48;;;;;;;9.63;3.58;;;;;;;;;;4953185;28;92463;-84
2023/07/28 05:09:15;;;;;;;6.25;2.70;;;;;;;;;;4942060;28;96010;-83
2023/07/28 05:11:41;;;;;;;8.48;3.17;;;;;;;;;;4936496;28;94498;-84
2023/07/28 05:14:08;;;;;;;6.07;2.90;;;;;;;;;;4943182;28;92463;-83
2023/07/28 05:16:35;;;;;;;7.72;3.00;;;;;;;;;;4955512;28;94637;-83
2023/07/28 05:19:07;;;;;;;7.45;3.17;;;;;;;;;;4945664;28;92084;-83
2023/07/28 05:21:52;;;;;;;6.93;3.20;;;;;;;;;;4962102;28;92444;-83
2023/07/28 05:24:24;;;;;;;7.25;3.00;;;;;;;;;;4953909;28;94459;-84
2023/07/28 05:26:50;;;;;;;7.97;3.70;;;;;;;;;;4954969;28;97904;-84
2023/07/28 05:29:17;;;;;;;9.93;4.28;;;;;;;;;;4924351;28;98044;-84
2023/07/28 05:31:45;;;;;;;7.78;3.55;;;;;;;;;;4947308;28;96012;-83
2023/07/28 05:34:20;;;;;;;9.07;3.40;;;;;;;;;;4927237;28;92561;-83
2023/07/28 05:36:47;;;;;;;7.55;3.33;;;;;;;;;;4935023;28;95769;-83
2023/07/28 05:39:13;;;;;;;8.10;3.25;;;;;;;;;;4953397;28;93109;-83
2023/07/28 05:41:43;;;;;;;8.68;3.80;;;;;;;;;;4939706;28;92574;-84
2023/07/28 05:44:12;;;;;;;9.85;3.90;;;;;;;;;;4948615;28;95671;-84
2023/07/28 05:46:39;;;;;;;9.05;3.50;;;;;;;;;;4954032;28;95936;-84
2023/07/28 05:49:06;;;;;;;9.00;3.25;;;;;;;;;;4957008;28;95207;-83
2023/07/28 05:51:32;;;;;;;7.20;3.20;;;;;;;;;;4949922;28;96743;-83
2023/07/28 05:54:00;;;;;;;7.15;3.40;;;;;;;;;;4945106;28;92711;-83
2023/07/28 05:56:27;;;;;;;;;;;;;;;;;;4937044;28;93766;-84
2023/07/28 05:58:53;;;;;;;8.05;3.47;;;;;;;;;;4944359;28;118139;-84
2023/07/28 06:01:20;;;;;;;7.30;3.20;;;;;;;;;;4945529;28;92484;-83
2023/07/28 06:04:22;;;;;;;7.25;3.30;;;;;;;;;;4925859;28;92775;-84
2023/07/28 06:06:51;;;;;;;7.68;3.22;;;;;;;;;;4933394;28;95227;-84
2023/07/28 06:09:18;;;;;;;8.80;3.67;;;;;;;;;;4950503;28;91645;-84
2023/07/28 06:11:45;;;;;;;8.60;3.28;;;;;;;;;;4948387;28;92988;-84
2023/07/28 06:14:12;;;;;;;5.40;2.88;;;;;;;;;;4939530;28;92590;-84
2023/07/28 06:16:39;;;;;;;7.75;3.30;;;;;;;;;;4942875;28;95614;-84
2023/07/28 06:19:06;;;;;;;;;;;;;;;;;;4942973;28;95804;-84
2023/07/28 06:21:33;;;;;;;7.22;3.38;;;;;;;;;;4949715;28;92616;-84
2023/07/28 06:24:00;;;;;;;7.00;2.92;;;;;;;;;;4984211;28;94716;-84
2023/07/28 06:26:27;;;;;;;;;;;;;;;;;;4935435;28;94790;-84
2023/07/28 06:28:54;;;;;;;7.57;3.45;;;;;;;;;;4943359;28;92456;-84
2023/07/28 06:31:21;;;;;;;6.82;3.20;;;;;;;;;;4952307;28;96065;-84
2023/07/28 06:33:47;;;;;;;7.53;3.38;;;;;;;;;;4937090;28;91822;-84
2023/07/28 06:36:14;;;;;;;7.53;3.30;;;;;;;;;;4927986;28;92453;-83
2023/07/28 06:38:42;;;;;;;6.95;3.13;;;;;;;;;;4949699;28;96283;-85
2023/07/28 06:41:09;;;;;;;6.50;3.13;;;;;;;;;;4947693;28;95111;-84
2023/07/28 06:43:36;;;;;;;7.03;3.03;;;;;;;;;;4951633;28;95285;-84
2023/07/28 06:46:04;;;;;;;6.85;3.30;;;;;;;;;;4946717;28;96390;-83
2023/07/28 06:48:32;;;;;;;6.88;3.13;;;;;;;;;;4937880;28;92743;-85
2023/07/28 06:50:58;;;;;;;8.18;3.67;;;;;;;;;;4949202;28;92904;-84
2023/07/28 06:53:26;;;;;;;6.55;3.00;;;;;;;;;;4952973;28;92485;-84
2023/07/28 06:55:53;;;;;;;7.25;3.17;;;;;;;;;;4950591;28;92864;-84
2023/07/28 06:58:21;;;;;;;6.57;3.13;;;;;;;;;;4921019;28;95411;-85
2023/07/28 07:00:48;;;;;;;6.65;3.00;;;;;;;;;;4931679;28;92424;-84
2023/07/28 07:03:17;;;;;;;8.00;3.40;;;;;;;;;;4947082;28;92953;-84
2023/07/28 07:05:43;;;;;;;6.28;3.15;;;;;;;;;;4945515;28;95365;-84
2023/07/28 07:08:10;;;;;;;6.95;3.33;;;;;;;;;;4939505;28;92479;-84
2023/07/28 07:10:37;;;;;;;8.38;3.65;;;;;;;;;;4937811;28;94945;-84
2023/07/28 07:13:03;;;;;;;7.85;3.60;;;;;;;;;;4944500;28;93087;-85
2023/07/28 07:15:30;;;;;;;8.63;3.95;;;;;;;;;;4947687;28;92995;-83
2023/07/28 07:17:57;;;;;;;7.72;3.63;;;;;;;;;;4914906;28;95855;-84
2023/07/28 07:20:24;;;;;;;7.72;3.67;;;;;;;;;;4947083;28;92662;-84
2023/07/28 07:22:50;;;;;;;8.65;4.38;;;;;;;;;;4952861;28;92538;-84
2023/07/28 07:25:17;;;;;;;9.20;4.20;;;;;;;;;;4950181;28;93178;-84
2023/07/28 07:27:43;;;;;;;6.70;3.15;;;;;;;;;;4962231;28;93568;-84
2023/07/28 07:30:10;;;;;;;8.20;3.72;;;;;;;;;;4943184;28;95049;-84
2023/07/28 07:32:36;;;;;;;7.43;3.60;;;;;;;;;;4927132;28;93152;-84
2023/07/28 07:35:03;;;;;;;7.57;3.70;;;;;;;;;;4943410;28;92433;-84
2023/07/28 07:37:31;;;;;;;8.45;4.00;;;;;;;;;;4950935;28;93318;-84
2023/07/28 07:40:00;;;;;;;7.10;3.60;;;;;;;;;;4951097;28;92401;-85
2023/07/28 07:42:28;;;;;;;7.50;3.70;;;;;;;;;;4950549;28;92778;-84
2023/07/28 07:44:54;;;;;;;8.55;3.33;;;;;;;;;;4933014;28;93503;-83
2023/07/28 07:47:20;;;;;;;8.20;3.60;;;;;;;;;;4946510;28;92264;-84
2023/07/28 07:49:47;;;;;;;6.90;3.53;;;;;;;;;;4948849;28;95385;-84
2023/07/28 07:52:14;;;;;;;8.57;3.65;;;;;;;;;;4950335;28;93490;-85
2023/07/28 07:54:41;;;;;;;7.03;3.30;;;;;;;;;;4948992;28;94925;-85
2023/07/28 07:57:07;;;;;;;7.15;3.30;;;;;;;;;;4946299;28;95290;-84
2023/07/28 07:59:34;;;;;;;6.40;3.20;;;;;;;;;;4936813;28;92476;-84
2023/07/28 08:02:02;;;;;;;7.40;3.30;;;;;;;;;;4950640;28;92823;-84
2023/07/28 08:04:31;;;;;;;5.93;2.92;;;;;;;;;;4950686;28;94809;-84
2023/07/28 08:06:58;;;;;;;7.32;3.33;;;;;;;;;;4947133;28;93447;-85
2023/07/28 08:09:24;;;;;;;7.32;3.28;;;;;;;;;;4920572;28;93411;-84
2023/07/28 08:11:52;;;;;;;7.93;3.67;;;;;;;;;;4948818;28;92413;-84
2023/07/28 08:14:19;;;;;;;7.03;3.30;;;;;;;;;;4944492;28;93142;-84
2023/07/28 08:16:45;;;;;;;7.18;3.70;;;;;;;;;;4956995;28;93824;-84
2023/07/28 08:19:12;;;;;;;6.88;3.20;;;;;;;;;;4952595;28;95937;-84
2023/07/28 08:21:38;;;;;;;7.20;3.38;;;;;;;;;;4950340;28;95886;-85
2023/07/28 08:24:05;;;;;;;7.25;3.30;;;;;;;;;;4925787;28;93074;-83
2023/07/28 08:26:32;;;;;;;6.45;3.20;;;;;;;;;;4955308;28;92730;-84
2023/07/28 08:28:58;;;;;;;5.82;3.00;;;;;;;;;;4955692;28;92931;-84
2023/07/28 08:31:25;;;;;;;7.55;3.47;;;;;;;;;;4965055;28;93091;-84
2023/07/28 08:33:51;;;;;;;6.82;3.22;;;;;;;;;;4924686;28;92514;-84
2023/07/28 08:36:18;;;;;;;8.43;3.30;;;;;;;;;;4952666;28;93464;-84
2023/07/28 08:38:45;;;;;;;7.22;3.20;;;;;;;;;;4949311;28;93330;-84
2023/07/28 08:41:14;;;;;;;6.95;3.25;;;;;;;;;;4933858;28;92497;-84
2023/07/28 08:43:41;;;;;;;6.20;3.10;;;;;;;;;;4942486;28;96245;-84
2023/07/28 08:46:08;;;;;;;6.95;3.15;;;;;;;;;;4949910;28;92522;-84
2023/07/28 08:48:35;;;;;;;6.88;3.08;;;;;;;;;;4940923;28;92820;-84
2023/07/28 08:51:02;;;;;;;6.93;3.33;;;;;;;;;;4951449;28;93285;-85
2023/07/28 08:53:28;;;;;;;5.60;2.53;;;;;;;;;;4952170;28;92939;-85
2023/07/28 08:55:55;;;;;;;6.47;3.20;;;;;;;;;;4938879;28;93051;-84
2023/07/28 08:58:22;;;;;;;6.47;3.13;;;;;;;;;;4942313;28;93256;-85
2023/07/28 09:00:49;;;;;;;6.72;2.70;;;;;;;;;;4949992;28;92063;-84
2023/07/28 09:03:17;;;;;;;7.00;3.10;;;;;;;;;;4952053;28;92425;-85
2023/07/28 09:05:44;;;;;;;;;;;;;;;;;;4951866;28;93305;-84
2023/07/28 09:08:11;;;;;;;6.53;2.92;;;;;;;;;;4937648;28;113019;-85
2023/07/28 09:10:41;;;;;;;5.97;2.80;;;;;;;;;;4939828;28;93351;-84
2023/07/28 09:13:15;;;;;;;6.32;2.70;;;;;;;;;;4944919;28;92406;-84
2023/07/28 09:15:44;;;;;;;6.43;2.70;;;;;;;;;;4948010;28;92571;-84
2023/07/28 09:18:17;;;;;;;6.20;2.78;;;;;;;;;;4959759;28;92664;-85
2023/07/28 09:20:44;;;;;;;6.47;2.78;;;;;;;;;;4967282;28;92385;-85
2023/07/28 09:23:10;;;;;;;6.70;2.70;;;;;;;;;;4961487;28;94165;-85
2023/07/28 09:25:37;;;;;;;5.25;2.47;;;;;;;;;;4955452;28;92323;-85
2023/07/28 09:28:04;;;;;;;5.38;2.53;;;;;;;;;;4961920;28;92610;-85
2023/07/28 09:30:44;;;;;;;5.72;2.65;;;;;;;;;;4963240;28;92276;-85
2023/07/28 09:33:11;;;;;;;5.30;2.50;;;;;;;;;;4954494;28;94814;-85
2023/07/28 09:35:46;;;;;;;6.05;2.60;;;;;;;;;;4971929;28;94553;-85
2023/07/28 09:38:15;;;;;;;5.95;2.50;;;;;;;;;;4971073;28;92253;-85
2023/07/28 09:40:43;;;;;;;5.43;2.50;;;;;;;;;;4974697;28;92149;-85
2023/07/28 09:43:10;;;;;;;5.30;2.50;;;;;;;;;;4950745;28;92139;-85
2023/07/28 09:45:37;;;;;;;6.07;2.45;;;;;;;;;;4967340;28;92084;-85
2023/07/28 09:48:07;;;;;;;5.50;2.60;;;;;;;;;;4972202;28;91740;-85
2023/07/28 09:50:36;;;;;;;5.38;2.42;;;;;;;;;;4967768;28;91865;-84
2023/07/28 09:53:07;;;;;;;5.63;2.70;;;;;;;;;;4953273;28;93045;-85
2023/07/28 09:55:34;;;;;;;6.05;2.67;;;;;;;;;;4953118;28;92833;-85
2023/07/28 09:58:01;;;;;;;;;;;;;;;;;;4946979;28;95562;-85
2023/07/28 10:00:28;;;;;;;5.22;2.50;;;;;;;;;;4945770;28;92939;-85
2023/07/28 10:02:55;;;;;;;5.93;2.47;;;;;;;;;;4951174;28;94007;-84
2023/07/28 10:05:24;;;;;;;5.75;2.33;;;;;;;;;;4937911;28;93033;-85
2023/07/28 10:07:51;;;;;;;5.60;2.50;;;;;;;;;;4938278;28;92824;-84
2023/07/28 10:10:18;;;;;;;4.70;2.42;;;;;;;;;;4938059;28;92952;-85
2023/07/28 10:12:51;;;;;;;5.25;2.38;;;;;;;;;;4948250;28;92512;-85
2023/07/28 10:15:19;;;;;;;5.38;2.40;;;;;;;;;;4948759;28;95820;-86
2023/07/28 10:17:54;;;;;;;4.80;2.42;;;;;;;;;;4953094;28;93694;-85
2023/07/28 10:20:27;;;;;;;4.70;2.35;;;;;;;;;;4943194;28;92444;-85
2023/07/28 10:23:01;;;;;;;4.40;2.47;;;;;;;;;;4949162;28;95847;-85
2023/07/28 10:25:27;;;;;;;4.57;2.22;;;;;;;;;;4952032;28;92473;-85
2023/07/28 10:27:54;;;;;;;4.70;2.30;;;;;;;;;;4921962;28;93086;-85
2023/07/28 10:30:21;;;;;;;5.15;2.10;;;;;;;;;;4946813;28;92731;-85
2023/07/28 10:32:50;;;;;;;4.82;2.38;;;;;;;;;;4944318;28;92570;-84
2023/07/28 10:35:17;;;;;;;5.38;2.38;;;;;;;;;;4947021;28;92983;-85
2023/07/28 10:37:44;;;;;;;5.15;2.40;;;;;;;;;;4960766;28;93241;-84
2023/07/28 10:40:24;;;;;;;5.20;2.45;;;;;;;;;;4971807;28;91934;-85
2023/07/28 10:42:51;;;;;;;5.35;2.45;;;;;;;;;;4956066;28;92531;-85
2023/07/28 10:45:18;;;;;;;4.90;2.38;;;;;;;;;;4951493;28;93739;-85
2023/07/28 10:47:45;;;;;;;4.28;2.40;;;;;;;;;;4948196;28;95457;-85
2023/07/28 10:50:12;;;;;;;5.15;2.22;;;;;;;;;;4951592;28;95475;-85
2023/07/28 10:52:39;;;;;;;5.32;2.40;;;;;;;;;;4954652;28;93369;-84
2023/07/28 10:55:16;;;;;;;5.50;2.50;;;;;;;;;;4959247;28;93523;-84
2023/07/28 10:57:43;;;;;;;5.03;2.70;;;;;;;;;;4940945;28;93462;-84
2023/07/28 11:00:12;;;;;;;4.88;2.28;;;;;;;;;;4932661;28;92904;-84
2023/07/28 11:02:42;;;;;;;4.18;2.25;;;;;;;;;;4934915;28;92993;-84
2023/07/28 11:05:11;;;;;;;5.82;2.60;;;;;;;;;;4943179;28;91739;-86
2023/07/28 11:07:40;;;;;;;5.05;2.63;;;;;;;;;;4945011;28;92504;-85
2023/07/28 11:10:07;;;;;;;5.45;2.42;;;;;;;;;;4933558;28;92710;-85
2023/07/28 11:12:33;;;;;;;3.85;2.30;;;;;;;;;;4934748;28;98095;-85
2023/07/28 11:15:00;;;;;;;4.95;2.40;;;;;;;;;;4949225;28;92502;-84
2023/07/28 11:17:27;;;;;;;6.35;2.30;;;;;;;;;;4931792;28;94935;-85
2023/07/28 11:19:53;;;;;;;;;;;;;;;;;;4945672;28;92497;-85
2023/07/28 11:22:20;;;;;;;4.47;2.30;;;;;;;;;;4939079;28;93762;-84
2023/07/28 11:24:50;;;;;;;4.47;2.20;;;;;;;;;;4951401;28;93133;-85
2023/07/28 11:27:16;;;;;;;6.28;2.35;;;;;;;;;;4950351;28;92465;-85
2023/07/28 11:29:43;;;;;;;5.93;2.45;;;;;;;;;;4938005;28;93325;-84
2023/07/28 11:32:09;;;;;;;5.10;2.35;;;;;;;;;;4943135;28;93499;-85
2023/07/28 11:34:36;;;;;;;5.57;2.70;;;;;;;;;;4933044;28;92539;-85
2023/07/28 11:37:05;;;;;;;4.95;2.45;;;;;;;;;;4933593;28;94996;-85
2023/07/28 11:39:32;;;;;;;4.47;2.50;;;;;;;;;;4950096;28;93222;-85
2023/07/28 11:41:58;;;;;;;4.88;2.50;;;;;;;;;;4949760;28;96107;-85
2023/07/28 11:44:25;;;;;;;5.10;2.47;;;;;;;;;;4940781;28;93086;-84
2023/07/28 11:46:55;;;;;;;4.43;2.15;;;;;;;;;;4951073;28;92510;-85
2023/07/28 11:49:22;;;;;;;5.40;2.47;;;;;;;;;;4952003;28;92945;-85
2023/07/28 11:51:51;;;;;;;4.82;2.20;;;;;;;;;;4939850;28;93469;-85
2023/07/28 11:54:21;;;;;;;4.13;2.10;;;;;;;;;;4955626;28;92540;-84
2023/07/28 11:56:49;;;;;;;4.68;2.40;;;;;;;;;;4951647;28;92415;-84
2023/07/28 11:59:16;;;;;;;5.72;2.33;;;;;;;;;;4933705;28;92509;-85
2023/07/28 12:01:43;;;;;;;;;;;;;;;;;;4942643;28;94902;-84
2023/07/28 12:04:19;;;;;;;4.97;2.38;;;;;;;;;;4953179;28;93472;-86
2023/07/28 12:07:06;;;;;;;4.93;2.40;;;;;;;;;;4941367;28;93953;-87
2023/07/28 12:09:59;;;;;;;5.10;2.20;;;;;;;;;;4936335;28;93170;-87
2023/07/28 12:12:30;;;;;;;5.43;2.50;;;;;;;;;;4911694;28;94742;-84
2023/07/28 12:15:20;;;;;;;4.93;2.28;;;;;;;;;;4948094;28;92461;-84
2023/07/28 12:18:00;;;;;;;4.68;2.10;;;;;;;;;;4951326;28;92724;-87
2023/07/28 12:20:34;;;;;;;4.68;2.20;;;;;;;;;;4954025;28;91757;-84
2023/07/28 12:23:05;;;;;;;5.25;2.33;;;;;;;;;;4950086;28;94126;-87
2023/07/28 12:25:36;;;;;;;4.10;2.35;;;;;;;;;;4952125;28;93091;-86
2023/07/28 12:28:03;;;;;;;5.93;2.80;;;;;;;;;;4934641;28;94923;-84
2023/07/28 12:30:29;;;;;;;5.57;2.50;;;;;;;;;;4937806;28;95092;-87
2023/07/28 12:32:56;;;;;;;5.28;2.67;;;;;;;;;;4943643;28;95736;-83
2023/07/28 12:35:30;;;;;;;6.03;2.60;;;;;;;;;;4947971;28;92498;-84
2023/07/28 12:38:00;;;;;;;5.82;2.47;;;;;;;;;;4955035;28;92904;-83
2023/07/28 12:40:27;;;;;;;;;;;;;;;;;;4947601;28;93258;-84
2023/07/28 12:42:56;;;;;;;4.95;2.50;;;;;;;;;;4960276;28;92477;-84
2023/07/28 12:45:26;;;;;;;5.43;2.40;;;;;;;;;;4964535;28;93167;-82
2023/07/28 12:47:53;;;;;;;5.95;2.50;;;;;;;;;;4952305;28;92876;-84
2023/07/28 12:50:24;;;;;;;5.38;2.55;;;;;;;;;;4975556;28;92386;-86
2023/07/28 12:52:50;;;;;;;5.45;2.30;;;;;;;;;;4954789;28;95155;-84
2023/07/28 12:55:20;;;;;;;5.55;2.50;;;;;;;;;;4946143;28;92438;-84
2023/07/28 12:57:48;;;;;;;4.40;2.20;;;;;;;;;;4938032;28;92664;-85
2023/07/28 13:00:16;;;;;;;4.45;2.15;;;;;;;;;;4937588;28;93644;-86
2023/07/28 13:02:46;;;;;;;4.30;2.10;;;;;;;;;;4946829;28;92438;-86
2023/07/28 13:05:13;;;;;;;4.75;2.35;;;;;;;;;;4956765;28;92882;-86
2023/07/28 13:07:40;;;;;;;4.97;2.35;;;;;;;;;;4938465;28;93046;-85
2023/07/28 13:10:11;;;;;;;4.35;2.40;;;;;;;;;;4940075;28;92804;-84
2023/07/28 13:12:57;;;;;;;4.78;2.47;;;;;;;;;;4949515;28;92993;-85
2023/07/28 13:15:24;;;;;;;5.68;2.65;;;;;;;;;;4926574;28;92566;-85
2023/07/28 13:17:51;;;;;;;4.22;2.08;;;;;;;;;;4959083;28;94894;-84
2023/07/28 13:20:17;;;;;;;4.60;2.38;;;;;;;;;;4936968;28;93071;-84
2023/07/28 13:22:44;;;;;;;4.50;2.40;;;;;;;;;;4942228;28;94727;-84
2023/07/28 13:25:11;;;;;;;;;;;;;;;;;;4953995;28;95814;-84
2023/07/28 13:27:37;;;;;;;3.88;2.20;;;;;;;;;;4950627;28;109065;-84
2023/07/28 13:30:04;;;;;;;4.57;2.40;;;;;;;;;;4948418;28;92951;-84
2023/07/28 13:32:31;;;;;;;5.05;2.45;;;;;;;;;;4940216;28;93111;-86
2023/07/28 13:34:58;;;;;;;5.57;2.63;;;;;;;;;;4945293;28;91708;-84
2023/07/28 13:37:24;;;;;;;5.88;2.60;;;;;;;;;;4945788;28;92923;-84
2023/07/28 13:39:51;;;;;;;4.97;2.40;;;;;;;;;;4956491;28;93194;-83
2023/07/28 13:42:18;;;;;;;4.50;2.45;;;;;;;;;;4956582;28;94817;-85
2023/07/28 13:44:44;;;;;;;4.28;2.45;;;;;;;;;;4945903;28;95462;-84
2023/07/28 13:47:23;;;;;;;4.70;2.55;;;;;;;;;;4955795;28;93772;-85
2023/07/28 13:49:50;;;;;;;4.40;2.47;;;;;;;;;;4956737;28;92498;-85
2023/07/28 13:52:17;;;;;;;4.43;2.30;;;;;;;;;;4933616;28;92544;-84
2023/07/28 13:54:48;;;;;;;4.35;2.20;;;;;;;;;;4940791;28;92517;-84
2023/07/28 13:57:18;;;;;;;4.90;2.50;;;;;;;;;;4939881;28;95083;-85
2023/07/28 13:59:45;;;;;;;;;;;;;;;;;;4943242;28;92281;-84
2023/07/28 14:02:11;;;;;;;4.55;2.40;;;;;;;;;;4948900;28;92433;-84
2023/07/28 14:04:38;;;;;;;4.38;2.55;;;;;;;;;;4944517;28;93027;-85
2023/07/28 14:07:04;;;;;;;4.90;2.60;;;;;;;;;;4942010;28;96603;-85
2023/07/28 14:09:31;;;;;;;4.43;2.30;;;;;;;;;;4940912;28;92696;-85
2023/07/28 14:11:57;;;;;;;4.05;2.20;;;;;;;;;;4948811;28;93527;-85
2023/07/28 14:14:24;;;;;;;4.22;2.50;;;;;;;;;;4945177;28;92424;-85
2023/07/28 14:16:51;;;;;;;4.72;2.63;;;;;;;;;;4953082;28;93130;-85
2023/07/28 14:19:17;;;;;;;4.53;2.60;;;;;;;;;;4948701;28;95761;-85
2023/07/28 14:21:44;;;;;;;5.43;2.70;;;;;;;;;;4957149;28;92483;-84
2023/07/28 14:24:11;;;;;;;4.80;2.47;;;;;;;;;;4949759;28;91887;-84
2023/07/28 14:26:38;;;;;;;5.10;2.63;;;;;;;;;;4950133;28;92330;-85
2023/07/28 14:29:04;;;;;;;4.53;2.70;;;;;;;;;;4941357;28;92513;-85
2023/07/28 14:31:31;;;;;;;5.40;2.72;;;;;;;;;;4945754;28;95170;-85
2023/07/28 14:33:58;;;;;;;4.75;2.30;;;;;;;;;;4933549;28;92507;-85
2023/07/28 14:36:24;;;;;;;5.63;2.70;;;;;;;;;;4943349;28;93144;-84
2023/07/28 14:38:51;;;;;;;5.28;2.40;;;;;;;;;;4950098;28;93150;-84
2023/07/28 14:41:17;;;;;;;4.93;2.50;;;;;;;;;;4932291;28;92757;-84
2023/07/28 14:43:44;;;;;;;5.28;2.70;;;;;;;;;;4946343;28;93031;-85
2023/07/28 14:46:10;;;;;;;5.22;2.55;;;;;;;;;;4949603;28;93205;-84
2023/07/28 14:48:37;;;;;;;4.80;2.65;;;;;;;;;;4946054;28;91817;-85
2023/07/28 14:51:03;;;;;;;5.80;2.92;;;;;;;;;;4951762;28;92544;-85